sensor_id;sensor_type;location;lat;lon;timestamp;temperature;humidity
16674;DHT22;8450;52.654;10.326;2023-12-29T00:02:01;9.80;99.90
16674;DHT22;8450;52.654;10.326;2023-12-29T00:04:27;9.80;99.90
16674;DHT22;8450;52.654;10.326;2023-12-29T00:06:52;9.80;99.90
16674;DHT22;8450;52.654;10.326;2023-12-29T00:09:18;9.80;99.90
16674;DHT22;8450;52.654;10.326;2023-12-29T00:11:47;9.80;99.90
16674;DHT22;8450;52.654;10.326;2023-12-29T00:14:13;9.80;99.90
16674;DHT22;8450;52.654;10.326;2023-12-29T00:16:38;9.80;99.90
16674;DHT22;8450;52.654;10.326;2023-12-29T00:19:04;9.80;99.90
16674;DHT22;8450;52.654;10.326;2023-12-29T00:21:30;9.90;99.90
16674;DHT22;8450;52.654;10.326;2023-12-29T00:23:56;9.90;99.90
16674;DHT22;8450;52.654;10.326;2023-12-29T00:26:22;9.90;99.90
16674;DHT22;8450;52.654;10.326;2023-12-29T00:28:54;9.90;99.90
16674;DHT22;8450;52.654;10.326;2023-12-29T00:31:20;9.90;99.90
16674;DHT22;8450;52.654;10.326;2023-12-29T00:33:45;9.80;99.90
16674;DHT22;8450;52.654;10.326;2023-12-29T00:36:15;9.80;99.90
16674;DHT22;8450;52.654;10.326;2023-12-29T00:38:41;9.80;99.90
16674;DHT22;8450;52.654;10.326;2023-12-29T00:41:07;9.80;99.90
16674;DHT22;8450;52.654;10.326;2023-12-29T00:43:32;9.80;99.90
16674;DHT22;8450;52.654;10.326;2023-12-29T00:46:00;9.80;99.90
16674;DHT22;8450;52.654;10.326;2023-12-29T00:48:26;9.90;99.90
16674;DHT22;8450;52.654;10.326;2023-12-29T00:50:51;9.80;99.90
16674;DHT22;8450;52.654;10.326;2023-12-29T00:53:17;9.90;99.90
16674;DHT22;8450;52.654;10.326;2023-12-29T00:55:43;9.90;99.90
16674;DHT22;8450;52.654;10.326;2023-12-29T00:58:08;9.80;99.90
16674;DHT22;8450;52.654;10.326;2023-12-29T01:00:34;9.80;99.90
16674;DHT22;8450;52.654;10.326;2023-12-29T01:03:00;9.80;99.90
16674;DHT22;8450;52.654;10.326;2023-12-29T01:05:25;9.80;99.90
16674;DHT22;8450;52.654;10.326;2023-12-29T01:07:53;9.80;99.90
16674;DHT22;8450;52.654;10.326;2023-12-29T01:10:18;9.70;99.90
16674;DHT22;8450;52.654;10.326;2023-12-29T01:12:44;9.80;99.90
16674;DHT22;8450;52.654;10.326;2023-12-29T01:15:10;9.80;99.90
16674;DHT22;8450;52.654;10.326;2023-12-29T01:17:35;9.80;99.90
16674;DHT22;8450;52.654;10.326;2023-12-29T01:20:01;9.80;99.90
16674;DHT22;8450;52.654;10.326;2023-12-29T01:22:28;9.80;99.90
16674;DHT22;8450;52.654;10.326;2023-12-29T01:24:54;9.80;99.90
16674;DHT22;8450;52.654;10.326;2023-12-29T01:27:19;9.70;99.90
16674;DHT22;8450;52.654;10.326;2023-12-29T01:29:45;9.70;99.90
16674;DHT22;8450;52.654;10.326;2023-12-29T01:32:11;9.80;99.90
16674;DHT22;8450;52.654;10.326;2023-12-29T01:34:36;9.70;99.90
16674;DHT22;8450;52.654;10.326;2023-12-29T01:37:05;9.80;99.90
16674;DHT22;8450;52.654;10.326;2023-12-29T01:39:30;9.80;99.90
16674;DHT22;8450;52.654;10.326;2023-12-29T01:41:56;9.80;99.90
16674;DHT22;8450;52.654;10.326;2023-12-29T01:44:22;9.80;99.90
16674;DHT22;8450;52.654;10.326;2023-12-29T01:46:54;9.80;99.90
16674;DHT22;8450;52.654;10.326;2023-12-29T01:49:20;9.80;99.90
16674;DHT22;8450;52.654;10.326;2023-12-29T01:51:50;9.90;99.90
16674;DHT22;8450;52.654;10.326;2023-12-29T01:54:18;9.70;99.90
16674;DHT22;8450;52.654;10.326;2023-12-29T01:56:44;9.50;99.90
16674;DHT22;8450;52.654;10.326;2023-12-29T01:59:10;9.40;99.90
16674;DHT22;8450;52.654;10.326;2023-12-29T02:01:37;9.30;99.90
16674;DHT22;8450;52.654;10.326;2023-12-29T02:04:04;9.20;99.90
16674;DHT22;8450;52.654;10.326;2023-12-29T02:06:31;9.10;99.90
16674;DHT22;8450;52.654;10.326;2023-12-29T02:08:58;9.10;99.90
16674;DHT22;8450;52.654;10.326;2023-12-29T02:11:24;9.00;99.90
16674;DHT22;8450;52.654;10.326;2023-12-29T02:13:51;9.00;99.90
16674;DHT22;8450;52.654;10.326;2023-12-29T02:16:26;9.00;99.90
16674;DHT22;8450;52.654;10.326;2023-12-29T02:18:55;9.00;99.90
16674;DHT22;8450;52.654;10.326;2023-12-29T02:21:26;8.90;99.90
16674;DHT22;8450;52.654;10.326;2023-12-29T02:23:52;8.90;99.90
16674;DHT22;8450;52.654;10.326;2023-12-29T02:26:20;8.80;99.90
16674;DHT22;8450;52.654;10.326;2023-12-29T02:28:52;8.80;99.90
16674;DHT22;8450;52.654;10.326;2023-12-29T02:31:23;8.90;99.90
16674;DHT22;8450;52.654;10.326;2023-12-29T02:33:50;8.70;99.90
16674;DHT22;8450;52.654;10.326;2023-12-29T02:36:18;8.70;99.90
16674;DHT22;8450;52.654;10.326;2023-12-29T02:38:44;8.60;99.90
16674;DHT22;8450;52.654;10.326;2023-12-29T02:41:11;8.60;99.90
16674;DHT22;8450;52.654;10.326;2023-12-29T02:43:39;8.50;99.90
16674;DHT22;8450;52.654;10.326;2023-12-29T02:46:05;8.50;99.90
16674;DHT22;8450;52.654;10.326;2023-12-29T02:48:31;8.40;99.90
16674;DHT22;8450;52.654;10.326;2023-12-29T02:50:56;8.40;99.90
16674;DHT22;8450;52.654;10.326;2023-12-29T02:53:22;8.30;99.90
16674;DHT22;8450;52.654;10.326;2023-12-29T02:55:47;8.40;99.90
16674;DHT22;8450;52.654;10.326;2023-12-29T02:58:13;8.40;99.90
16674;DHT22;8450;52.654;10.326;2023-12-29T03:00:38;8.40;99.90
16674;DHT22;8450;52.654;10.326;2023-12-29T03:03:04;8.40;99.90
16674;DHT22;8450;52.654;10.326;2023-12-29T03:05:30;8.50;99.90
16674;DHT22;8450;52.654;10.326;2023-12-29T03:07:56;8.50;99.90
16674;DHT22;8450;52.654;10.326;2023-12-29T03:10:23;8.60;99.90
16674;DHT22;8450;52.654;10.326;2023-12-29T03:12:49;8.70;99.90
16674;DHT22;8450;52.654;10.326;2023-12-29T03:15:15;8.80;99.90
16674;DHT22;8450;52.654;10.326;2023-12-29T03:17:40;8.80;99.90
16674;DHT22;8450;52.654;10.326;2023-12-29T03:20:06;8.70;99.90
16674;DHT22;8450;52.654;10.326;2023-12-29T03:22:33;8.70;99.90
16674;DHT22;8450;52.654;10.326;2023-12-29T03:24:59;8.90;99.90
16674;DHT22;8450;52.654;10.326;2023-12-29T03:27:24;8.90;99.90
16674;DHT22;8450;52.654;10.326;2023-12-29T03:29:50;8.90;99.90
16674;DHT22;8450;52.654;10.326;2023-12-29T03:32:15;8.90;99.90
16674;DHT22;8450;52.654;10.326;2023-12-29T03:34:41;8.80;99.90
16674;DHT22;8450;52.654;10.326;2023-12-29T03:37:06;8.80;99.90
16674;DHT22;8450;52.654;10.326;2023-12-29T03:39:32;8.70;99.90
16674;DHT22;8450;52.654;10.326;2023-12-29T03:42:01;8.70;99.90
16674;DHT22;8450;52.654;10.326;2023-12-29T03:44:26;8.70;99.90
16674;DHT22;8450;52.654;10.326;2023-12-29T03:46:52;8.80;99.90
16674;DHT22;8450;52.654;10.326;2023-12-29T03:49:17;8.80;99.90
16674;DHT22;8450;52.654;10.326;2023-12-29T03:51:43;8.90;99.90
16674;DHT22;8450;52.654;10.326;2023-12-29T03:54:09;9.00;99.90
16674;DHT22;8450;52.654;10.326;2023-12-29T03:56:34;9.00;99.90
16674;DHT22;8450;52.654;10.326;2023-12-29T03:59:01;9.10;99.90
16674;DHT22;8450;52.654;10.326;2023-12-29T04:01:26;9.20;99.90
16674;DHT22;8450;52.654;10.326;2023-12-29T04:03:53;9.00;99.90
16674;DHT22;8450;52.654;10.326;2023-12-29T04:06:18;9.10;99.90
16674;DHT22;8450;52.654;10.326;2023-12-29T04:08:44;9.10;99.90
16674;DHT22;8450;52.654;10.326;2023-12-29T04:11:09;9.00;99.90
16674;DHT22;8450;52.654;10.326;2023-12-29T04:13:35;9.10;99.90
16674;DHT22;8450;52.654;10.326;2023-12-29T04:16:01;9.20;99.90
16674;DHT22;8450;52.654;10.326;2023-12-29T04:18:28;9.20;99.90
16674;DHT22;8450;52.654;10.326;2023-12-29T04:20:54;9.30;99.90
16674;DHT22;8450;52.654;10.326;2023-12-29T04:23:19;9.30;99.90
16674;DHT22;8450;52.654;10.326;2023-12-29T04:25:45;9.20;99.90
16674;DHT22;8450;52.654;10.326;2023-12-29T04:28:11;9.20;99.90
16674;DHT22;8450;52.654;10.326;2023-12-29T04:30:36;9.20;99.90
16674;DHT22;8450;52.654;10.326;2023-12-29T04:33:02;9.20;99.90
16674;DHT22;8450;52.654;10.326;2023-12-29T04:35:30;9.20;99.90
16674;DHT22;8450;52.654;10.326;2023-12-29T04:37:55;9.20;99.90
16674;DHT22;8450;52.654;10.326;2023-12-29T04:40:21;9.30;99.90
16674;DHT22;8450;52.654;10.326;2023-12-29T04:42:46;9.40;99.90
16674;DHT22;8450;52.654;10.326;2023-12-29T04:45:12;9.50;99.90
16674;DHT22;8450;52.654;10.326;2023-12-29T04:47:38;9.60;99.90
16674;DHT22;8450;52.654;10.326;2023-12-29T04:50:04;9.50;99.90
16674;DHT22;8450;52.654;10.326;2023-12-29T04:52:31;9.50;99.90
16674;DHT22;8450;52.654;10.326;2023-12-29T04:54:57;9.50;99.90
16674;DHT22;8450;52.654;10.326;2023-12-29T04:57:22;9.50;99.90
16674;DHT22;8450;52.654;10.326;2023-12-29T04:59:48;9.50;99.90
16674;DHT22;8450;52.654;10.326;2023-12-29T05:02:13;9.40;99.90
16674;DHT22;8450;52.654;10.326;2023-12-29T05:04:39;9.40;99.90
16674;DHT22;8450;52.654;10.326;2023-12-29T05:07:08;9.20;99.90
16674;DHT22;8450;52.654;10.326;2023-12-29T05:09:34;9.20;99.90
16674;DHT22;8450;52.654;10.326;2023-12-29T05:11:59;9.20;99.90
16674;DHT22;8450;52.654;10.326;2023-12-29T05:14:25;9.20;99.90
16674;DHT22;8450;52.654;10.326;2023-12-29T05:16:51;9.10;99.90
16674;DHT22;8450;52.654;10.326;2023-12-29T05:19:16;9.00;99.90
16674;DHT22;8450;52.654;10.326;2023-12-29T05:21:42;9.10;99.90
16674;DHT22;8450;52.654;10.326;2023-12-29T05:24:07;9.00;99.90
16674;DHT22;8450;52.654;10.326;2023-12-29T05:26:33;8.90;99.90
16674;DHT22;8450;52.654;10.326;2023-12-29T05:28:58;8.90;99.90
16674;DHT22;8450;52.654;10.326;2023-12-29T05:31:24;8.90;99.90
16674;DHT22;8450;52.654;10.326;2023-12-29T05:33:50;8.90;99.90
16674;DHT22;8450;52.654;10.326;2023-12-29T05:36:16;9.00;99.90
16674;DHT22;8450;52.654;10.326;2023-12-29T05:38:45;8.90;99.90
16674;DHT22;8450;52.654;10.326;2023-12-29T05:41:13;9.00;99.90
16674;DHT22;8450;52.654;10.326;2023-12-29T05:43:39;9.00;99.90
16674;DHT22;8450;52.654;10.326;2023-12-29T05:46:09;9.10;99.90
16674;DHT22;8450;52.654;10.326;2023-12-29T05:48:36;9.10;99.90
16674;DHT22;8450;52.654;10.326;2023-12-29T05:51:12;9.10;99.90
16674;DHT22;8450;52.654;10.326;2023-12-29T05:53:39;9.10;99.90
16674;DHT22;8450;52.654;10.326;2023-12-29T05:56:05;9.00;99.90
16674;DHT22;8450;52.654;10.326;2023-12-29T05:58:31;9.00;99.90
16674;DHT22;8450;52.654;10.326;2023-12-29T06:00:56;9.00;99.90
16674;DHT22;8450;52.654;10.326;2023-12-29T06:03:23;9.00;99.90
16674;DHT22;8450;52.654;10.326;2023-12-29T06:05:48;8.90;99.90
16674;DHT22;8450;52.654;10.326;2023-12-29T06:08:14;8.90;99.90
16674;DHT22;8450;52.654;10.326;2023-12-29T06:10:39;8.80;99.90
16674;DHT22;8450;52.654;10.326;2023-12-29T06:13:05;8.80;99.90
16674;DHT22;8450;52.654;10.326;2023-12-29T06:15:30;8.80;99.90
16674;DHT22;8450;52.654;10.326;2023-12-29T06:17:56;8.90;99.90
16674;DHT22;8450;52.654;10.326;2023-12-29T06:20:22;8.90;99.90
16674;DHT22;8450;52.654;10.326;2023-12-29T06:22:48;8.90;99.90
16674;DHT22;8450;52.654;10.326;2023-12-29T06:25:13;8.80;99.90
16674;DHT22;8450;52.654;10.326;2023-12-29T06:27:39;8.80;99.90
16674;DHT22;8450;52.654;10.326;2023-12-29T06:30:07;8.90;99.90
16674;DHT22;8450;52.654;10.326;2023-12-29T06:32:33;8.90;99.90
16674;DHT22;8450;52.654;10.326;2023-12-29T06:34:58;8.90;99.90
16674;DHT22;8450;52.654;10.326;2023-12-29T06:37:24;8.90;99.90
16674;DHT22;8450;52.654;10.326;2023-12-29T06:39:49;8.80;99.90
16674;DHT22;8450;52.654;10.326;2023-12-29T06:42:15;8.90;99.90
16674;DHT22;8450;52.654;10.326;2023-12-29T06:44:40;8.90;99.90
16674;DHT22;8450;52.654;10.326;2023-12-29T06:47:06;8.90;99.90
16674;DHT22;8450;52.654;10.326;2023-12-29T06:49:34;8.90;99.90
16674;DHT22;8450;52.654;10.326;2023-12-29T06:52:00;8.90;99.90
16674;DHT22;8450;52.654;10.326;2023-12-29T06:54:25;9.00;99.90
16674;DHT22;8450;52.654;10.326;2023-12-29T06:56:51;9.00;99.90
16674;DHT22;8450;52.654;10.326;2023-12-29T06:59:16;9.10;99.90
16674;DHT22;8450;52.654;10.326;2023-12-29T07:01:44;9.10;99.90
16674;DHT22;8450;52.654;10.326;2023-12-29T07:04:09;9.20;99.90
16674;DHT22;8450;52.654;10.326;2023-12-29T07:06:36;9.20;99.90
16674;DHT22;8450;52.654;10.326;2023-12-29T07:09:02;9.20;99.90
16674;DHT22;8450;52.654;10.326;2023-12-29T07:11:28;9.20;99.90
16674;DHT22;8450;52.654;10.326;2023-12-29T07:13:53;9.30;99.90
16674;DHT22;8450;52.654;10.326;2023-12-29T07:16:19;9.20;99.90
16674;DHT22;8450;52.654;10.326;2023-12-29T07:18:48;9.10;99.90
16674;DHT22;8450;52.654;10.326;2023-12-29T07:21:14;9.10;99.90
16674;DHT22;8450;52.654;10.326;2023-12-29T07:23:40;9.20;99.90
16674;DHT22;8450;52.654;10.326;2023-12-29T07:26:06;9.10;99.90
16674;DHT22;8450;52.654;10.326;2023-12-29T07:28:32;9.20;99.90
16674;DHT22;8450;52.654;10.326;2023-12-29T07:30:57;9.10;99.90
16674;DHT22;8450;52.654;10.326;2023-12-29T07:33:23;9.20;99.90
16674;DHT22;8450;52.654;10.326;2023-12-29T07:35:49;9.10;99.90
16674;DHT22;8450;52.654;10.326;2023-12-29T07:38:15;9.10;99.90
16674;DHT22;8450;52.654;10.326;2023-12-29T07:40:41;9.10;99.90
16674;DHT22;8450;52.654;10.326;2023-12-29T07:43:07;9.00;99.90
16674;DHT22;8450;52.654;10.326;2023-12-29T07:45:33;8.90;99.90
16674;DHT22;8450;52.654;10.326;2023-12-29T07:47:59;8.80;99.90
16674;DHT22;8450;52.654;10.326;2023-12-29T07:50:24;8.70;99.90
16674;DHT22;8450;52.654;10.326;2023-12-29T07:52:50;8.60;99.90
16674;DHT22;8450;52.654;10.326;2023-12-29T07:55:15;8.60;99.90
16674;DHT22;8450;52.654;10.326;2023-12-29T07:57:44;8.50;99.90
16674;DHT22;8450;52.654;10.326;2023-12-29T08:00:10;8.50;99.90
16674;DHT22;8450;52.654;10.326;2023-12-29T08:02:38;8.40;99.90
16674;DHT22;8450;52.654;10.326;2023-12-29T08:05:04;8.30;99.90
16674;DHT22;8450;52.654;10.326;2023-12-29T08:07:29;8.20;99.90
16674;DHT22;8450;52.654;10.326;2023-12-29T08:09:55;8.20;99.90
16674;DHT22;8450;52.654;10.326;2023-12-29T08:12:20;8.10;99.90
16674;DHT22;8450;52.654;10.326;2023-12-29T08:14:46;8.10;99.90
16674;DHT22;8450;52.654;10.326;2023-12-29T08:17:11;8.00;99.90
16674;DHT22;8450;52.654;10.326;2023-12-29T08:19:38;8.00;99.90
16674;DHT22;8450;52.654;10.326;2023-12-29T08:22:03;8.00;99.90
16674;DHT22;8450;52.654;10.326;2023-12-29T08:24:29;8.00;99.90
16674;DHT22;8450;52.654;10.326;2023-12-29T08:26:54;8.00;99.90
16674;DHT22;8450;52.654;10.326;2023-12-29T08:29:20;8.00;99.90
16674;DHT22;8450;52.654;10.326;2023-12-29T08:31:46;8.00;99.90
16674;DHT22;8450;52.654;10.326;2023-12-29T08:34:12;8.00;99.90
16674;DHT22;8450;52.654;10.326;2023-12-29T08:36:37;8.00;99.90
16674;DHT22;8450;52.654;10.326;2023-12-29T08:39:03;8.00;99.90
16674;DHT22;8450;52.654;10.326;2023-12-29T08:41:29;8.00;99.90
16674;DHT22;8450;52.654;10.326;2023-12-29T08:43:54;8.00;99.90
16674;DHT22;8450;52.654;10.326;2023-12-29T08:46:20;7.90;99.90
16674;DHT22;8450;52.654;10.326;2023-12-29T08:48:46;8.00;99.90
16674;DHT22;8450;52.654;10.326;2023-12-29T08:51:12;8.00;99.90
16674;DHT22;8450;52.654;10.326;2023-12-29T08:53:37;8.00;99.90
16674;DHT22;8450;52.654;10.326;2023-12-29T08:56:03;8.00;99.90
16674;DHT22;8450;52.654;10.326;2023-12-29T08:58:29;8.10;99.90
16674;DHT22;8450;52.654;10.326;2023-12-29T09:00:55;8.10;99.90
16674;DHT22;8450;52.654;10.326;2023-12-29T09:03:21;8.10;99.90
16674;DHT22;8450;52.654;10.326;2023-12-29T09:05:46;8.20;99.90
16674;DHT22;8450;52.654;10.326;2023-12-29T09:08:12;8.30;99.90
16674;DHT22;8450;52.654;10.326;2023-12-29T09:10:37;8.30;99.90
16674;DHT22;8450;52.654;10.326;2023-12-29T09:13:04;8.40;99.90
16674;DHT22;8450;52.654;10.326;2023-12-29T09:15:29;8.40;99.90
16674;DHT22;8450;52.654;10.326;2023-12-29T09:17:55;8.40;99.90
16674;DHT22;8450;52.654;10.326;2023-12-29T09:20:20;8.50;99.90
16674;DHT22;8450;52.654;10.326;2023-12-29T09:22:46;8.60;99.90
16674;DHT22;8450;52.654;10.326;2023-12-29T09:25:11;8.60;99.90
16674;DHT22;8450;52.654;10.326;2023-12-29T09:27:37;8.60;99.90
16674;DHT22;8450;52.654;10.326;2023-12-29T09:30:04;8.70;99.90
16674;DHT22;8450;52.654;10.326;2023-12-29T09:32:30;8.80;99.90
16674;DHT22;8450;52.654;10.326;2023-12-29T09:34:55;8.90;99.90
16674;DHT22;8450;52.654;10.326;2023-12-29T09:37:22;8.90;99.90
16674;DHT22;8450;52.654;10.326;2023-12-29T09:39:47;9.00;99.90
16674;DHT22;8450;52.654;10.326;2023-12-29T09:42:20;9.00;99.90
16674;DHT22;8450;52.654;10.326;2023-12-29T09:44:49;8.90;99.90
16674;DHT22;8450;52.654;10.326;2023-12-29T09:47:18;8.90;99.90
16674;DHT22;8450;52.654;10.326;2023-12-29T09:49:45;9.00;99.90
16674;DHT22;8450;52.654;10.326;2023-12-29T09:52:12;9.10;99.90
16674;DHT22;8450;52.654;10.326;2023-12-29T09:54:39;9.10;99.90
16674;DHT22;8450;52.654;10.326;2023-12-29T09:57:05;9.20;99.90
16674;DHT22;8450;52.654;10.326;2023-12-29T09:59:35;9.20;99.90
16674;DHT22;8450;52.654;10.326;2023-12-29T10:02:06;9.20;99.90
16674;DHT22;8450;52.654;10.326;2023-12-29T10:04:37;9.30;99.90
16674;DHT22;8450;52.654;10.326;2023-12-29T10:07:04;9.30;99.90
16674;DHT22;8450;52.654;10.326;2023-12-29T10:09:34;9.30;99.90
16674;DHT22;8450;52.654;10.326;2023-12-29T10:12:02;9.40;99.90
16674;DHT22;8450;52.654;10.326;2023-12-29T10:15:00;9.40;99.90
16674;DHT22;8450;52.654;10.326;2023-12-29T10:17:52;9.50;99.90
16674;DHT22;8450;52.654;10.326;2023-12-29T10:20:44;9.50;99.90
16674;DHT22;8450;52.654;10.326;2023-12-29T10:23:20;9.40;99.90
16674;DHT22;8450;52.654;10.326;2023-12-29T10:25:48;9.60;99.90
16674;DHT22;8450;52.654;10.326;2023-12-29T10:28:16;9.50;99.90
16674;DHT22;8450;52.654;10.326;2023-12-29T10:30:42;9.50;99.90
16674;DHT22;8450;52.654;10.326;2023-12-29T10:33:08;9.60;99.90
16674;DHT22;8450;52.654;10.326;2023-12-29T10:35:35;9.50;99.90
16674;DHT22;8450;52.654;10.326;2023-12-29T10:38:09;9.50;99.90
16674;DHT22;8450;52.654;10.326;2023-12-29T10:40:36;9.60;99.90
16674;DHT22;8450;52.654;10.326;2023-12-29T10:43:01;9.60;99.90
16674;DHT22;8450;52.654;10.326;2023-12-29T10:45:32;9.50;99.90
16674;DHT22;8450;52.654;10.326;2023-12-29T10:47:59;9.40;99.90
16674;DHT22;8450;52.654;10.326;2023-12-29T10:50:25;9.30;99.90
16674;DHT22;8450;52.654;10.326;2023-12-29T10:53:10;9.30;99.90
16674;DHT22;8450;52.654;10.326;2023-12-29T10:55:35;9.20;99.90
16674;DHT22;8450;52.654;10.326;2023-12-29T10:58:01;9.10;99.90
16674;DHT22;8450;52.654;10.326;2023-12-29T11:00:30;9.00;99.90
16674;DHT22;8450;52.654;10.326;2023-12-29T11:02:58;9.00;99.90
16674;DHT22;8450;52.654;10.326;2023-12-29T11:05:25;8.90;99.90
16674;DHT22;8450;52.654;10.326;2023-12-29T11:07:52;8.90;99.90
16674;DHT22;8450;52.654;10.326;2023-12-29T11:10:23;8.80;99.90
16674;DHT22;8450;52.654;10.326;2023-12-29T11:12:49;8.70;99.90
16674;DHT22;8450;52.654;10.326;2023-12-29T11:15:15;8.70;99.90
16674;DHT22;8450;52.654;10.326;2023-12-29T11:17:42;8.70;99.90
16674;DHT22;8450;52.654;10.326;2023-12-29T11:20:15;8.60;99.90
16674;DHT22;8450;52.654;10.326;2023-12-29T11:22:46;8.50;99.90
16674;DHT22;8450;52.654;10.326;2023-12-29T11:25:12;8.50;99.90
16674;DHT22;8450;52.654;10.326;2023-12-29T11:27:38;8.60;99.90
16674;DHT22;8450;52.654;10.326;2023-12-29T11:30:04;8.50;99.90
16674;DHT22;8450;52.654;10.326;2023-12-29T11:32:42;8.50;99.90
16674;DHT22;8450;52.654;10.326;2023-12-29T11:40:42;8.40;99.90
16674;DHT22;8450;52.654;10.326;2023-12-29T11:43:15;8.30;99.90
16674;DHT22;8450;52.654;10.326;2023-12-29T11:45:41;8.30;99.90
16674;DHT22;8450;52.654;10.326;2023-12-29T11:48:07;8.20;99.90
16674;DHT22;8450;52.654;10.326;2023-12-29T11:50:36;8.20;99.90
16674;DHT22;8450;52.654;10.326;2023-12-29T11:53:04;8.20;99.90
16674;DHT22;8450;52.654;10.326;2023-12-29T11:55:37;8.20;99.90
16674;DHT22;8450;52.654;10.326;2023-12-29T12:00:48;8.10;99.90
16674;DHT22;8450;52.654;10.326;2023-12-29T12:03:28;8.00;99.90
16674;DHT22;8450;52.654;10.326;2023-12-29T12:05:55;8.00;99.90
16674;DHT22;8450;52.654;10.326;2023-12-29T12:08:31;8.00;99.90
16674;DHT22;8450;52.654;10.326;2023-12-29T12:13:45;8.10;99.90
16674;DHT22;8450;52.654;10.326;2023-12-29T12:19:11;8.10;99.90
16674;DHT22;8450;52.654;10.326;2023-12-29T12:21:37;8.10;99.90
16674;DHT22;8450;52.654;10.326;2023-12-29T12:24:07;8.10;99.90
16674;DHT22;8450;52.654;10.326;2023-12-29T12:26:33;8.10;99.90
16674;DHT22;8450;52.654;10.326;2023-12-29T12:29:00;8.10;99.90
16674;DHT22;8450;52.654;10.326;2023-12-29T12:31:25;8.20;99.90
16674;DHT22;8450;52.654;10.326;2023-12-29T12:33:55;8.20;99.90
16674;DHT22;8450;52.654;10.326;2023-12-29T12:36:22;8.20;99.90
16674;DHT22;8450;52.654;10.326;2023-12-29T12:38:51;8.30;99.90
16674;DHT22;8450;52.654;10.326;2023-12-29T12:41:17;8.30;99.90
16674;DHT22;8450;52.654;10.326;2023-12-29T12:43:50;8.40;99.90
16674;DHT22;8450;52.654;10.326;2023-12-29T12:46:22;8.30;99.90
16674;DHT22;8450;52.654;10.326;2023-12-29T12:48:49;8.30;99.90
16674;DHT22;8450;52.654;10.326;2023-12-29T12:51:16;8.40;99.90
16674;DHT22;8450;52.654;10.326;2023-12-29T12:53:44;8.50;99.90
16674;DHT22;8450;52.654;10.326;2023-12-29T12:56:10;8.60;99.90
16674;DHT22;8450;52.654;10.326;2023-12-29T12:58:36;8.60;99.90
16674;DHT22;8450;52.654;10.326;2023-12-29T13:01:03;8.60;99.90
16674;DHT22;8450;52.654;10.326;2023-12-29T13:03:31;8.60;99.90
16674;DHT22;8450;52.654;10.326;2023-12-29T13:05:58;8.70;99.90
16674;DHT22;8450;52.654;10.326;2023-12-29T13:08:25;8.70;99.90
16674;DHT22;8450;52.654;10.326;2023-12-29T13:10:51;8.70;99.90
16674;DHT22;8450;52.654;10.326;2023-12-29T13:13:17;8.70;99.90
16674;DHT22;8450;52.654;10.326;2023-12-29T13:15:47;8.80;99.90
16674;DHT22;8450;52.654;10.326;2023-12-29T13:18:14;8.90;99.90
16674;DHT22;8450;52.654;10.326;2023-12-29T13:20:48;8.90;99.90
16674;DHT22;8450;52.654;10.326;2023-12-29T13:23:14;8.90;99.90
16674;DHT22;8450;52.654;10.326;2023-12-29T13:25:40;8.90;99.90
16674;DHT22;8450;52.654;10.326;2023-12-29T13:28:08;8.90;99.90
16674;DHT22;8450;52.654;10.326;2023-12-29T13:30:34;8.60;99.90
16674;DHT22;8450;52.654;10.326;2023-12-29T13:33:09;8.40;99.90
16674;DHT22;8450;52.654;10.326;2023-12-29T13:35:44;8.40;99.90
16674;DHT22;8450;52.654;10.326;2023-12-29T13:38:20;8.30;99.90
16674;DHT22;8450;52.654;10.326;2023-12-29T13:40:54;8.30;99.90
16674;DHT22;8450;52.654;10.326;2023-12-29T13:43:21;8.40;99.90
16674;DHT22;8450;52.654;10.326;2023-12-29T13:45:48;8.40;99.90
16674;DHT22;8450;52.654;10.326;2023-12-29T13:48:14;8.40;99.90
16674;DHT22;8450;52.654;10.326;2023-12-29T13:50:50;8.40;99.90
16674;DHT22;8450;52.654;10.326;2023-12-29T13:53:20;8.40;99.90
16674;DHT22;8450;52.654;10.326;2023-12-29T13:55:46;8.40;99.90
16674;DHT22;8450;52.654;10.326;2023-12-29T13:58:12;8.40;99.90
16674;DHT22;8450;52.654;10.326;2023-12-29T14:00:40;8.40;99.90
16674;DHT22;8450;52.654;10.326;2023-12-29T14:03:09;8.30;99.90
16674;DHT22;8450;52.654;10.326;2023-12-29T14:05:43;8.10;99.90
16674;DHT22;8450;52.654;10.326;2023-12-29T14:08:17;8.00;99.90
16674;DHT22;8450;52.654;10.326;2023-12-29T14:10:45;8.10;99.90
16674;DHT22;8450;52.654;10.326;2023-12-29T14:13:15;8.10;99.90
16674;DHT22;8450;52.654;10.326;2023-12-29T14:15:43;8.10;99.90
16674;DHT22;8450;52.654;10.326;2023-12-29T14:21:32;8.10;99.90
16674;DHT22;8450;52.654;10.326;2023-12-29T14:24:14;8.10;99.90
16674;DHT22;8450;52.654;10.326;2023-12-29T14:29:18;8.20;99.90
16674;DHT22;8450;52.654;10.326;2023-12-29T14:31:45;8.20;99.90
16674;DHT22;8450;52.654;10.326;2023-12-29T14:34:11;8.20;99.90
16674;DHT22;8450;52.654;10.326;2023-12-29T14:36:39;8.30;99.90
16674;DHT22;8450;52.654;10.326;2023-12-29T14:39:05;8.30;99.90
16674;DHT22;8450;52.654;10.326;2023-12-29T14:41:32;8.20;99.90
16674;DHT22;8450;52.654;10.326;2023-12-29T14:43:57;8.30;99.90
16674;DHT22;8450;52.654;10.326;2023-12-29T14:46:23;8.50;99.90
16674;DHT22;8450;52.654;10.326;2023-12-29T14:48:49;8.60;99.90
16674;DHT22;8450;52.654;10.326;2023-12-29T14:51:15;8.50;99.90
16674;DHT22;8450;52.654;10.326;2023-12-29T14:53:48;8.50;99.90
16674;DHT22;8450;52.654;10.326;2023-12-29T14:56:14;8.50;99.90
16674;DHT22;8450;52.654;10.326;2023-12-29T14:58:40;8.50;99.90
16674;DHT22;8450;52.654;10.326;2023-12-29T15:01:06;8.40;99.90
16674;DHT22;8450;52.654;10.326;2023-12-29T15:03:32;8.40;99.90
16674;DHT22;8450;52.654;10.326;2023-12-29T15:05:58;8.30;99.90
16674;DHT22;8450;52.654;10.326;2023-12-29T15:08:24;8.30;99.90
16674;DHT22;8450;52.654;10.326;2023-12-29T15:10:50;8.20;99.90
16674;DHT22;8450;52.654;10.326;2023-12-29T15:13:16;8.20;99.90
16674;DHT22;8450;52.654;10.326;2023-12-29T15:15:42;8.20;99.90
16674;DHT22;8450;52.654;10.326;2023-12-29T15:18:07;8.10;99.90
16674;DHT22;8450;52.654;10.326;2023-12-29T15:20:33;8.10;99.90
16674;DHT22;8450;52.654;10.326;2023-12-29T15:22:59;8.10;99.90
16674;DHT22;8450;52.654;10.326;2023-12-29T15:25:26;8.10;99.90
16674;DHT22;8450;52.654;10.326;2023-12-29T15:27:52;8.10;99.90
16674;DHT22;8450;52.654;10.326;2023-12-29T15:30:18;8.00;99.90
16674;DHT22;8450;52.654;10.326;2023-12-29T15:32:44;8.00;99.90
16674;DHT22;8450;52.654;10.326;2023-12-29T15:35:10;7.90;99.90
16674;DHT22;8450;52.654;10.326;2023-12-29T15:37:35;7.90;99.90
16674;DHT22;8450;52.654;10.326;2023-12-29T15:40:02;7.90;99.90
16674;DHT22;8450;52.654;10.326;2023-12-29T15:42:29;7.80;99.90
16674;DHT22;8450;52.654;10.326;2023-12-29T15:44:55;7.80;99.90
16674;DHT22;8450;52.654;10.326;2023-12-29T15:47:20;7.80;99.90
16674;DHT22;8450;52.654;10.326;2023-12-29T15:49:46;7.70;99.90
16674;DHT22;8450;52.654;10.326;2023-12-29T15:52:11;7.70;99.90
16674;DHT22;8450;52.654;10.326;2023-12-29T15:54:37;7.80;99.90
16674;DHT22;8450;52.654;10.326;2023-12-29T15:57:04;7.80;99.90
16674;DHT22;8450;52.654;10.326;2023-12-29T15:59:33;7.90;99.90
16674;DHT22;8450;52.654;10.326;2023-12-29T16:01:59;7.90;99.90
16674;DHT22;8450;52.654;10.326;2023-12-29T16:04:25;7.90;99.90